createdAt,value
2023-05-10T00:01:09.453Z,49.80
2023-05-10T00:04:11.307Z,50.00
2023-05-10T00:07:13.273Z,49.90
2023-05-10T00:10:15.348Z,50.00
2023-05-10T00:13:17.471Z,49.90
2023-05-10T00:16:19.302Z,50.20
2023-05-10T00:19:21.107Z,50.40
2023-05-10T00:22:22.832Z,50.40
2023-05-10T00:25:24.636Z,50.60
2023-05-10T00:28:28.084Z,50.60
2023-05-10T00:31:29.918Z,50.70
2023-05-10T00:34:31.900Z,50.90
2023-05-10T00:37:33.758Z,50.70
2023-05-10T00:40:38.072Z,50.90
2023-05-10T00:43:40.332Z,51.20
2023-05-10T00:46:42.880Z,51.10
2023-05-10T00:49:45.328Z,51.20
2023-05-10T00:52:47.213Z,51.30
2023-05-10T00:55:49.279Z,51.20
2023-05-10T00:58:51.410Z,51.30
2023-05-10T01:01:54.020Z,51.70
2023-05-10T01:04:56.351Z,51.70
2023-05-10T01:07:58.131Z,51.70
2023-05-10T01:11:00.035Z,51.60
2023-05-10T01:14:03.084Z,51.70
2023-05-10T01:17:07.154Z,52.00
2023-05-10T01:20:10.780Z,52.30
2023-05-10T01:23:32.102Z,52.50
2023-05-10T01:26:43.022Z,52.80
2023-05-10T01:30:15.884Z,52.50
2023-05-10T01:33:17.930Z,52.60
2023-05-10T01:36:44.629Z,52.60
2023-05-10T01:39:54.493Z,53.30
2023-05-10T01:43:04.713Z,53.00
2023-05-10T01:46:17.505Z,53.40
2023-05-10T01:49:27.537Z,53.30
2023-05-10T01:52:36.328Z,53.50
2023-05-10T01:55:47.292Z,53.50
2023-05-10T01:58:50.913Z,53.60
2023-05-10T02:01:53.977Z,53.50
2023-05-10T02:04:58.035Z,53.60
2023-05-10T02:08:02.459Z,53.70
2023-05-10T02:11:06.257Z,53.80
2023-05-10T02:14:11.893Z,53.90
2023-05-10T02:17:14.743Z,54.50
2023-05-10T02:20:18.377Z,54.10
2023-05-10T02:23:22.344Z,54.80
2023-05-10T02:26:26.243Z,54.90
2023-05-10T02:29:29.488Z,54.90
2023-05-10T02:32:31.899Z,55.30
2023-05-10T02:35:34.729Z,55.60
2023-05-10T02:38:37.845Z,55.50
2023-05-10T02:41:41.685Z,55.60
2023-05-10T02:44:46.906Z,56.00
2023-05-10T02:47:49.501Z,55.80
2023-05-10T02:50:53.396Z,56.10
2023-05-10T02:53:57.379Z,56.10
2023-05-10T02:57:01.680Z,56.00
2023-05-10T03:00:04.357Z,56.20
2023-05-10T03:03:06.223Z,56.50
2023-05-10T03:06:08.113Z,56.90
2023-05-10T03:09:12.186Z,56.90
2023-05-10T03:12:32.698Z,56.70
2023-05-10T03:16:00.400Z,58.30
2023-05-10T03:19:18.969Z,58.90
2023-05-10T03:22:31.686Z,59.50
2023-05-10T03:25:34.452Z,59.80
2023-05-10T03:28:37.309Z,59.50
2023-05-10T03:31:40.130Z,59.40
2023-05-10T03:34:45.416Z,60.00
2023-05-10T03:37:47.898Z,61.20
2023-05-10T03:40:49.650Z,60.40
2023-05-10T03:43:51.390Z,60.90
2023-05-10T03:46:53.274Z,61.60
2023-05-10T03:49:55.108Z,62.10
2023-05-10T03:52:56.998Z,62.50
2023-05-10T03:55:58.754Z,62.70
2023-05-10T03:59:00.598Z,63.70
2023-05-10T04:02:02.622Z,64.30
2023-05-10T04:05:04.671Z,64.90
2023-05-10T04:08:07.098Z,65.30
2023-05-10T04:11:10.426Z,65.70
2023-05-10T04:14:12.351Z,67.00
2023-05-10T04:17:14.289Z,67.70
2023-05-10T04:20:16.374Z,68.40
2023-05-10T04:23:18.333Z,70.10
2023-05-10T04:26:20.122Z,70.80
2023-05-10T04:29:22.129Z,71.60
2023-05-10T04:32:24.358Z,72.90
2023-05-10T04:35:26.228Z,72.70
2023-05-10T04:38:28.182Z,73.80
2023-05-10T04:41:30.131Z,74.40
2023-05-10T04:44:32.026Z,75.00
2023-05-10T04:47:33.868Z,75.90
2023-05-10T04:50:35.677Z,76.70
2023-05-10T04:53:37.550Z,77.30
2023-05-10T04:56:39.363Z,78.20
2023-05-10T04:59:45.308Z,78.90
2023-05-10T05:02:47.243Z,79.70
2023-05-10T05:05:49.389Z,80.50
2023-05-10T05:08:51.362Z,81.10
2023-05-10T05:11:53.276Z,81.70
2023-05-10T05:14:55.090Z,82.30
2023-05-10T05:17:57.048Z,83.20
2023-05-10T05:20:58.921Z,83.70
2023-05-10T05:24:01.028Z,84.20
2023-05-10T05:27:02.847Z,84.80
2023-05-10T05:30:05.920Z,85.30
2023-05-10T05:33:07.975Z,85.40
2023-05-10T05:36:11.689Z,85.70
2023-05-10T05:39:13.742Z,86.40
2023-05-10T05:42:17.475Z,87.20
2023-05-10T05:45:19.681Z,88.00
2023-05-10T05:48:23.306Z,88.40
2023-05-10T05:51:25.116Z,89.00
2023-05-10T05:54:29.249Z,89.20
2023-05-10T05:57:31.501Z,90.00
2023-05-10T06:00:33.950Z,90.20
2023-05-10T06:03:36.039Z,90.60
2023-05-10T06:06:38.553Z,90.90
2023-05-10T06:09:40.913Z,91.20
2023-05-10T06:12:43.857Z,91.40
2023-05-10T06:15:45.713Z,91.80
2023-05-10T06:18:47.513Z,91.90
2023-05-10T06:21:49.264Z,92.20
2023-05-10T06:24:51.006Z,92.40
2023-05-10T06:27:58.609Z,92.60
2023-05-10T06:31:00.951Z,92.70
2023-05-10T06:34:02.996Z,92.90
2023-05-10T06:37:04.804Z,93.30
2023-05-10T06:40:07.793Z,93.80
2023-05-10T06:43:09.949Z,94.50
2023-05-10T06:46:11.799Z,94.70
2023-05-10T06:49:13.708Z,95.30
2023-05-10T06:52:15.569Z,96.10
2023-05-10T06:55:17.685Z,96.10
2023-05-10T06:58:19.735Z,96.40
2023-05-10T07:01:21.681Z,96.90
2023-05-10T07:04:23.475Z,97.10
2023-05-10T07:07:25.297Z,97.30
2023-05-10T07:10:27.664Z,97.50
2023-05-10T07:13:29.687Z,97.90
2023-05-10T07:16:31.628Z,98.10
2023-05-10T07:19:34.907Z,98.10
2023-05-10T07:22:37.123Z,98.10
2023-05-10T07:25:38.978Z,98.10
2023-05-10T07:28:40.960Z,98.10
2023-05-10T07:31:43.832Z,98.20
2023-05-10T07:34:45.620Z,98.10
2023-05-10T07:37:47.532Z,97.80
2023-05-10T07:40:49.314Z,97.60
2023-05-10T07:43:51.128Z,97.50
2023-05-10T07:46:53.332Z,97.60
2023-05-10T07:49:55.142Z,97.70
2023-05-10T07:52:58.244Z,97.90
2023-05-10T07:56:00.283Z,97.90
2023-05-10T07:59:08.131Z,98.00
2023-05-10T08:02:11.219Z,97.50
2023-05-10T08:05:14.028Z,97.60
2023-05-10T08:08:16.075Z,97.60
2023-05-10T08:11:18.686Z,97.70
2023-05-10T08:14:20.681Z,97.80
2023-05-10T08:17:23.483Z,98.20
2023-05-10T08:20:26.574Z,98.40
2023-05-10T08:23:28.517Z,98.50
2023-05-10T08:26:30.392Z,98.70
2023-05-10T08:29:38.659Z,99.20
2023-05-10T08:32:48.364Z,99.50
2023-05-10T08:35:50.463Z,99.70
2023-05-10T08:38:53.177Z,99.70
2023-05-10T08:41:58.251Z,99.50
2023-05-10T08:45:00.658Z,99.40
2023-05-10T08:48:07.802Z,99.60
2023-05-10T08:51:10.746Z,99.50
2023-05-10T08:54:12.819Z,99.70
2023-05-10T08:57:14.914Z,99.90
2023-05-10T09:00:17.991Z,99.20
2023-05-10T09:03:19.935Z,98.60
2023-05-10T09:06:22.084Z,97.90
2023-05-10T09:09:25.392Z,97.60
2023-05-10T09:12:28.300Z,97.50
2023-05-10T09:15:30.110Z,97.40
2023-05-10T09:18:32.024Z,97.30
2023-05-10T09:21:39.110Z,97.30
2023-05-10T09:24:46.222Z,97.30
2023-05-10T09:27:49.027Z,97.50
2023-05-10T09:30:56.558Z,97.40
2023-05-10T09:33:58.520Z,97.30
2023-05-10T09:37:09.174Z,98.00
2023-05-10T09:40:16.796Z,97.50
2023-05-10T09:43:18.562Z,96.60
2023-05-10T09:46:20.598Z,97.10
2023-05-10T09:49:23.218Z,96.70
2023-05-10T09:52:25.022Z,96.20
2023-05-10T09:55:41.482Z,96.10
2023-05-10T09:58:43.413Z,95.90
2023-05-10T10:01:51.376Z,96.10
2023-05-10T10:04:53.847Z,95.20
2023-05-10T10:07:58.284Z,96.00
2023-05-10T10:11:00.424Z,96.00
2023-05-10T10:14:02.456Z,96.30
2023-05-10T10:17:08.101Z,96.20
2023-05-10T10:20:12.216Z,96.30
2023-05-10T10:23:15.822Z,96.30
2023-05-10T10:26:19.919Z,96.60
2023-05-10T10:29:45.832Z,97.00
2023-05-10T10:33:44.205Z,95.80
2023-05-10T10:36:48.910Z,95.70
2023-05-10T10:39:51.457Z,97.90
2023-05-10T10:42:54.604Z,98.00
2023-05-10T10:46:16.430Z,97.70
2023-05-10T10:49:18.389Z,95.00
2023-05-10T10:52:31.023Z,96.00
2023-05-10T10:55:33.340Z,94.20
2023-05-10T10:58:36.068Z,94.60
2023-05-10T11:01:38.038Z,94.00
2023-05-10T11:04:44.692Z,93.90
2023-05-10T11:07:56.578Z,93.90
2023-05-10T11:11:01.408Z,93.80
2023-05-10T11:14:07.988Z,94.10
2023-05-10T11:17:38.970Z,94.50
2023-05-10T11:20:40.948Z,94.10
2023-05-10T11:23:49.953Z,95.70
2023-05-10T11:26:52.858Z,95.30
2023-05-10T11:29:54.633Z,96.30
2023-05-10T11:32:56.849Z,96.40
2023-05-10T11:35:58.667Z,96.50
2023-05-10T11:39:00.724Z,96.70
2023-05-10T11:42:02.620Z,96.60
2023-05-10T11:45:05.189Z,96.60
2023-05-10T11:48:07.191Z,96.40
2023-05-10T11:51:09.739Z,96.70
2023-05-10T11:54:12.675Z,96.80
2023-05-10T11:57:14.535Z,96.70
2023-05-10T12:00:16.983Z,96.80
2023-05-10T12:03:19.441Z,97.00
2023-05-10T12:06:22.164Z,97.00
2023-05-10T12:12:43.708Z,96.60
2023-05-10T12:15:45.851Z,95.10
2023-05-10T12:18:52.495Z,96.90
2023-05-10T12:21:57.775Z,96.20
2023-05-10T12:25:00.195Z,96.90
2023-05-10T12:28:05.234Z,96.50
2023-05-10T12:31:08.523Z,96.00
2023-05-10T12:34:10.455Z,96.00
2023-05-10T12:37:13.142Z,95.30
2023-05-10T12:40:15.811Z,94.00
2023-05-10T12:43:17.851Z,93.40
2023-05-10T12:46:20.088Z,93.40
2023-05-10T12:49:21.951Z,93.70
2023-05-10T12:52:24.207Z,94.00
2023-05-10T12:55:26.297Z,94.10
2023-05-10T12:58:35.448Z,94.20
2023-05-10T13:01:37.872Z,94.60
2023-05-10T13:04:40.807Z,94.90
2023-05-10T13:07:44.865Z,95.30
2023-05-10T13:10:46.962Z,95.40
2023-05-10T13:13:48.824Z,95.90
2023-05-10T13:16:50.900Z,95.60
2023-05-10T13:19:52.906Z,95.30
2023-05-10T13:22:54.835Z,95.20
2023-05-10T13:25:56.807Z,95.00
2023-05-10T13:28:58.640Z,94.80
2023-05-10T13:32:00.904Z,94.60
2023-05-10T13:35:04.319Z,94.70
2023-05-10T13:38:09.040Z,94.50
2023-05-10T13:41:11.749Z,94.80
2023-05-10T13:44:15.364Z,94.60
2023-05-10T13:47:17.402Z,94.40
2023-05-10T13:50:19.668Z,94.60
2023-05-10T13:53:21.971Z,94.80
2023-05-10T13:56:23.760Z,94.90
2023-05-10T13:59:25.560Z,95.20
2023-05-10T14:02:28.612Z,95.30
2023-05-10T14:05:30.399Z,95.10
2023-05-10T14:08:32.175Z,95.40
2023-05-10T14:11:33.902Z,95.10
2023-05-10T14:14:35.714Z,94.90
2023-05-10T14:17:37.472Z,94.60
2023-05-10T14:20:39.302Z,94.40
2023-05-10T14:23:41.253Z,94.00
2023-05-10T14:26:43.164Z,93.80
2023-05-10T14:29:45.008Z,93.70
2023-05-10T14:32:47.096Z,93.60
2023-05-10T14:35:49.482Z,93.80
2023-05-10T14:38:51.788Z,93.70
2023-05-10T14:41:53.660Z,93.60
2023-05-10T14:44:55.439Z,93.30
2023-05-10T14:47:57.814Z,93.20
2023-05-10T14:50:59.630Z,93.10
2023-05-10T14:54:01.691Z,92.70
2023-05-10T14:57:03.459Z,92.80
2023-05-10T15:00:05.823Z,92.60
2023-05-10T15:03:08.713Z,92.40
2023-05-10T15:06:10.987Z,92.50
2023-05-10T15:09:12.813Z,92.60
2023-05-10T15:12:14.611Z,92.50
2023-05-10T15:15:16.634Z,92.80
2023-05-10T15:18:18.847Z,92.30
2023-05-10T15:21:20.620Z,92.40
2023-05-10T15:24:23.006Z,92.50
2023-05-10T15:27:24.869Z,92.10
2023-05-10T15:30:26.673Z,91.80
2023-05-10T15:33:28.549Z,91.40
2023-05-10T15:36:30.334Z,91.20
2023-05-10T15:39:32.072Z,91.00
2023-05-10T15:42:34.004Z,90.30
2023-05-10T15:45:37.589Z,90.20
2023-05-10T15:48:40.340Z,90.30
2023-05-10T15:51:42.364Z,90.60
2023-05-10T15:54:44.169Z,91.10
2023-05-10T15:57:46.151Z,91.00
2023-05-10T16:00:48.172Z,91.20
2023-05-10T16:03:49.970Z,91.40
2023-05-10T16:06:51.939Z,91.90
2023-05-10T16:09:53.710Z,91.80
2023-05-10T16:12:55.623Z,92.30
2023-05-10T16:15:58.274Z,92.60
2023-05-10T16:19:01.519Z,92.90
2023-05-10T16:22:03.493Z,93.00
2023-05-10T16:25:06.442Z,93.10
2023-05-10T16:28:08.223Z,93.20
2023-05-10T16:31:10.079Z,93.40
2023-05-10T16:34:11.912Z,93.60
2023-05-10T16:37:13.667Z,93.80
2023-05-10T16:40:15.603Z,94.00
2023-05-10T16:43:17.675Z,94.10
2023-05-10T16:46:19.504Z,94.00
2023-05-10T16:49:21.960Z,94.20
2023-05-10T16:52:24.579Z,94.30
2023-05-10T16:55:26.559Z,94.60
2023-05-10T16:58:28.306Z,94.60
2023-05-10T17:01:30.122Z,94.80
2023-05-10T17:04:32.002Z,94.90
2023-05-10T17:07:33.762Z,95.00
2023-05-10T17:10:36.529Z,94.90
2023-05-10T17:13:38.909Z,94.70
2023-05-10T17:16:41.683Z,94.60
2023-05-10T17:19:46.330Z,94.60
2023-05-10T17:22:48.482Z,94.60
2023-05-10T17:25:50.195Z,94.90
2023-05-10T17:28:54.497Z,95.20
2023-05-10T17:31:56.398Z,95.40
2023-05-10T17:34:58.823Z,95.40
2023-05-10T17:38:00.673Z,95.40
2023-05-10T17:41:02.419Z,95.50
2023-05-10T17:44:04.231Z,95.70
2023-05-10T17:47:06.497Z,95.90
2023-05-10T17:50:10.191Z,96.10
2023-05-10T17:53:12.686Z,96.30
2023-05-10T17:56:14.610Z,96.50
2023-05-10T17:59:16.450Z,96.70
2023-05-10T18:02:18.710Z,96.80
2023-05-10T18:05:20.856Z,96.90
2023-05-10T18:08:25.086Z,97.10
2023-05-10T18:11:27.021Z,97.30
2023-05-10T18:14:40.074Z,97.30
2023-05-10T18:17:43.117Z,97.50
2023-05-10T18:20:46.289Z,97.50
2023-05-10T18:23:48.193Z,97.60
2023-05-10T18:26:50.176Z,97.70
2023-05-10T18:29:52.250Z,97.60
2023-05-10T18:32:55.114Z,97.80
2023-05-10T18:35:57.048Z,97.80
2023-05-10T18:38:59.014Z,97.80
2023-05-10T18:42:00.980Z,97.80
2023-05-10T18:45:03.611Z,97.80
2023-05-10T18:48:05.749Z,97.90
2023-05-10T18:51:07.683Z,97.90
2023-05-10T18:54:09.675Z,97.80
2023-05-10T18:57:12.728Z,97.90
2023-05-10T19:00:14.753Z,97.90
2023-05-10T19:03:16.513Z,98.10
2023-05-10T19:06:18.374Z,98.20
2023-05-10T19:09:21.123Z,98.30
2023-05-10T19:12:22.963Z,98.40
2023-05-10T19:15:25.196Z,98.50
2023-05-10T19:18:28.132Z,98.50
2023-05-10T19:21:30.452Z,98.40
2023-05-10T19:24:34.286Z,98.30
2023-05-10T19:27:36.301Z,98.30
2023-05-10T19:30:38.466Z,98.30
2023-05-10T19:33:40.791Z,98.40
2023-05-10T19:36:42.699Z,98.50
2023-05-10T19:39:44.625Z,98.60
2023-05-10T19:42:46.744Z,98.70
2023-05-10T19:45:48.523Z,98.60
2023-05-10T19:48:51.039Z,98.50
2023-05-10T19:51:52.896Z,98.40
2023-05-10T19:54:54.660Z,98.40
2023-05-10T19:57:57.113Z,98.30
2023-05-10T20:00:59.568Z,98.20
2023-05-10T20:04:01.487Z,98.30
2023-05-10T20:07:03.300Z,98.40
2023-05-10T20:10:05.685Z,98.30
2023-05-10T20:13:07.788Z,98.50
2023-05-10T20:16:09.582Z,98.50
2023-05-10T20:19:12.215Z,98.60
2023-05-10T20:22:13.960Z,98.80
2023-05-10T20:25:16.920Z,98.90
2023-05-10T20:28:22.442Z,98.90
2023-05-10T20:31:24.274Z,98.80
2023-05-10T20:34:26.047Z,99.00
2023-05-10T20:37:28.309Z,99.10
2023-05-10T20:40:30.075Z,99.20
2023-05-10T20:43:31.885Z,99.30
2023-05-10T20:46:34.087Z,99.40
2023-05-10T20:49:37.914Z,99.60
2023-05-10T20:52:39.742Z,99.70
2023-05-10T20:55:41.531Z,99.80
2023-05-10T20:58:43.420Z,99.90
2023-05-10T21:01:45.589Z,99.90
2023-05-10T21:04:47.564Z,99.90
2023-05-10T21:07:49.518Z,99.90
2023-05-10T21:10:51.283Z,99.90
2023-05-10T21:13:53.041Z,99.90
2023-05-10T21:16:54.913Z,99.90
2023-05-10T21:19:56.711Z,99.90
2023-05-10T21:22:58.710Z,99.90
2023-05-10T21:26:03.218Z,99.90
2023-05-10T21:29:05.190Z,99.90
2023-05-10T21:32:07.021Z,99.90
2023-05-10T21:35:09.146Z,99.90
2023-05-10T21:38:11.894Z,99.90
2023-05-10T21:41:13.942Z,99.90
2023-05-10T21:44:16.004Z,99.90
2023-05-10T21:47:17.974Z,99.90
2023-05-10T21:50:20.456Z,99.90
2023-05-10T21:53:22.663Z,99.90
2023-05-10T21:56:24.416Z,99.90
2023-05-10T21:59:26.476Z,99.90
2023-05-10T22:02:29.551Z,99.90
2023-05-10T22:05:31.622Z,99.90
2023-05-10T22:08:33.381Z,99.90
2023-05-10T22:11:35.102Z,99.90
2023-05-10T22:14:37.352Z,99.90
2023-05-10T22:17:40.634Z,99.90
2023-05-10T22:20:47.314Z,99.90
2023-05-10T22:23:49.132Z,99.90
2023-05-10T22:26:53.574Z,99.90
2023-05-10T22:29:56.694Z,99.90
2023-05-10T22:32:59.622Z,99.90
2023-05-10T22:36:01.779Z,99.90
2023-05-10T22:39:03.613Z,99.90
2023-05-10T22:42:05.416Z,99.90
2023-05-10T22:45:08.122Z,99.90
2023-05-10T22:48:09.962Z,99.90
2023-05-10T22:51:12.060Z,99.90
2023-05-10T22:54:13.847Z,99.90
2023-05-10T22:57:16.353Z,99.90
2023-05-10T23:00:19.087Z,99.90
2023-05-10T23:03:21.847Z,99.90
2023-05-10T23:06:23.632Z,99.90
2023-05-10T23:09:25.430Z,99.90
2023-05-10T23:12:27.273Z,99.90
2023-05-10T23:15:30.071Z,99.90
2023-05-10T23:18:31.910Z,99.90
2023-05-10T23:21:34.561Z,99.90
2023-05-10T23:24:36.339Z,99.90
2023-05-10T23:27:38.502Z,99.90
2023-05-10T23:30:40.225Z,99.90
2023-05-10T23:33:42.106Z,99.90
2023-05-10T23:36:44.056Z,99.90
2023-05-10T23:39:46.064Z,99.90
2023-05-10T23:42:48.121Z,99.90
2023-05-10T23:45:57.814Z,99.90
2023-05-10T23:48:59.612Z,99.90
2023-05-10T23:52:01.407Z,99.90
2023-05-10T23:55:03.670Z,99.90
2023-05-10T23:58:06.126Z,99.90
